Airfield :







YOU CAN JOIN US ON...

 
LOGIN :

Register | Disclaimer

   EN    FR    IT 

 









Legend :    VFR   Marginal VFR   IFR   Intensive IFR   Very Intensive IFR
Visi :
Ceiling :
>= 8 km
>= 3000ft
5 to 8 km
1000 to 3000 ft
1500m to 5 km
500 to 1000 ft
800 to 1500m
200 to 500 ft
< 800m
< 200 ft
Symbols :   Thunderstorms  Fog  Heavy snow  Heavy precipitations  Wind > 20 kt






- Airport Elevation : 474 ft


KPTD - Potsdam Municipal-Damon field

CURRENT METAR :
  • 151255Z AUTO 24016G21KT 10SM -SN FEW015 BKN025 OVC031 01/M00 A2948 RMK AO2

EXPIRED METARs :
  • 151235Z AUTO 24016G23KT 9SM -SN FEW016 BKN025 OVC030 01/M00 A2947 RMK AO2
  • 151215Z AUTO 24018G24KT 10SM FEW014 BKN020 OVC026 01/M00 A2946 RMK AO2
  • 151155Z AUTO 25019G28KT 10SM SCT017 OVC022 02/M00 A2944 RMK AO2
  • 151135Z AUTO 25019G25KT 10SM BKN016 OVC021 01/M00 A2943 RMK AO2
  • 151110Z AUTO 25019G27KT 10SM -UP OVC016 01/M00 A2941 RMK AO2
  • 151055Z AUTO 24019KT 10SM -UP BKN014 OVC020 01/M00 A2939 RMK AO2
  • 151035Z AUTO 24017G25KT 10SM BKN013 OVC018 01/M00 A2938 RMK AO2
  • 151015Z AUTO 24017G24KT 10SM BKN013 OVC017 01/M00 A2937 RMK AO2

TAF N/A



MET'MAP, your aeronautical weather chart ! - Copyright ORBIFLY December 2007 - Disclaimer

ORBIFLY MET'MAP TEAM :

Programming & Development : Alexandra Zaïnal
Concept & original design : Baudouin d'Aumeries
Assistance for programming : Marc-Olivier Méhu
Technical & hardware support : Manuel Goepfert

Contact : metmap@orbifly.com




SOURCES & CREDITS :

   NOAA